Aviation

Metar/Speci

station

VRMH

METAR VRMH 181300Z 27005KT 9999 FEW018TCU BKN270 29/25 Q1009=

13 minutes ago

VRMM

METAR VRMM 181300Z 20006KT 9999 FEW018 30/24 Q1009 NOSIG=

10 minutes ago

VRMK

METAR VRMK 181300Z 15004KT 9999 FEW018TCU BKN260 29/25 Q1010=

12 minutes ago

VRMT

METAR VRMT 181300Z 15007KT 9999 FEW018TCU BKN260 29/25 Q1009=

13 minutes ago

VRMG

METAR VRMG 181300Z 16008KT 9999 FEW018TCU BKN260 28/25 Q1010 NOSIG=

13 minutes ago

Synop

station

43533

AAXX 18124 43533 12465 72707 10300 20251 30084 40086 60002 83962 333 10332 59001 82818 81919 87077=

1 hour ago

43555

AAXX 18124 43555 12475 32505 10309 20244 30089 40091 60002 82201 333 10321 58000 82818 83078=

1 hour ago

43577

AAXX 18124 43577 12465 71603 10296 20248 30092 40094 60002 82238 333 10311 58000 82818 87276=

1 hour ago

43588

AAXX 18124 43588 12462 71407 10303 20253 30091 40092 60002 83938 333 10310 58001 82818 81919 87276=

1 hour ago

43599

AAXX 18124 43599 12460 71610 10288 20250 30093 40095 69902 82268 333 10308 59001 82818 87276 =

1 hour ago

Tafs

station

VRMH

VRMH 181100Z 1812/1918 27007KT 9999 FEW018 TEMPO 1812/1818 FEW019CB=

2 hours ago

VRMM

VRMM 181100Z 1812/1918 25008KT 9999 FEW018TCU TEMPO 1812/1818 FEW019CB=

2 hours ago

VRMK

VRMK 181100Z 1812/1912 16007KT 9999 FEW018 TEMPO 1812/1818 FEW019CB=

2 hours ago

VRMT

VRMT 181100Z 1812/1912 14008KT 9999 FEW018TCU TEMPO 1812/1818 FEW018CB=

2 hours ago

VRMG

VRMG 181100Z 1812/1918 17011KT 9999 FEW018TCU TEMPO 1812/1818 FEW018CB=

2 hours ago

Sigmet

Flight folders

No flight folder available at the moment.